createdAt,value
2023-03-02T00:00:38.636Z,13.67
2023-03-02T00:05:44.849Z,14.30
2023-03-02T00:10:51.082Z,13.42
2023-03-02T00:15:57.350Z,14.19
2023-03-02T00:21:03.466Z,13.89
2023-03-02T00:26:09.679Z,13.24
2023-03-02T00:31:16.004Z,12.59
2023-03-02T00:36:22.061Z,13.03
2023-03-02T00:41:28.374Z,13.18
2023-03-02T00:46:35.245Z,13.01
2023-03-02T00:51:40.731Z,13.07
2023-03-02T00:56:46.884Z,13.09
2023-03-02T01:01:53.095Z,13.23
2023-03-02T01:06:59.151Z,13.03
2023-03-02T01:12:05.684Z,11.64
2023-03-02T01:17:11.804Z,11.17
2023-03-02T01:22:18.086Z,11.11
2023-03-02T01:27:24.302Z,10.80
2023-03-02T01:32:30.617Z,11.18
2023-03-02T01:37:36.783Z,10.92
2023-03-02T01:42:43.948Z,10.43
2023-03-02T01:47:50.179Z,10.37
2023-03-02T01:52:56.437Z,10.44
2023-03-02T01:58:02.549Z,10.62
2023-03-02T02:03:08.779Z,10.43
2023-03-02T02:08:14.814Z,10.37
2023-03-02T02:13:21.041Z,10.51
2023-03-02T02:18:27.332Z,11.14
2023-03-02T02:23:33.567Z,11.30
2023-03-02T02:28:39.628Z,10.97
2023-03-02T02:33:45.857Z,11.37
2023-03-02T02:38:52.056Z,11.14
2023-03-02T02:43:58.279Z,10.65
2023-03-02T02:49:04.388Z,11.54
2023-03-02T02:54:10.530Z,11.69
2023-03-02T02:59:16.708Z,12.22
2023-03-02T03:04:23.043Z,12.13
2023-03-02T03:09:29.118Z,11.56
2023-03-02T03:14:35.420Z,11.14
2023-03-02T03:19:41.541Z,11.52
2023-03-02T03:24:47.817Z,12.35
2023-03-02T03:29:53.960Z,11.95
2023-03-02T03:35:00.164Z,12.37
2023-03-02T03:40:06.282Z,11.38
2023-03-02T03:45:12.564Z,10.78
2023-03-02T03:50:18.766Z,11.22
2023-03-02T03:55:24.974Z,11.14
2023-03-02T04:00:31.658Z,11.29
2023-03-02T04:05:38.182Z,11.11
2023-03-02T04:10:44.236Z,10.69
2023-03-02T04:15:50.647Z,10.64
2023-03-02T04:20:56.792Z,10.54
2023-03-02T04:26:03.020Z,9.76
2023-03-02T04:31:09.223Z,10.35
2023-03-02T04:36:15.471Z,9.44
2023-03-02T04:41:21.635Z,9.27
2023-03-02T04:46:28.184Z,9.08
2023-03-02T04:51:34.096Z,8.74
2023-03-02T04:56:40.360Z,8.46
2023-03-02T05:01:46.970Z,8.38
2023-03-02T05:06:53.267Z,8.93
2023-03-02T05:11:59.435Z,8.66
2023-03-02T05:17:05.711Z,8.96
2023-03-02T05:22:11.803Z,7.99
2023-03-02T05:27:18.137Z,8.17
2023-03-02T05:32:24.280Z,8.87
2023-03-02T05:37:30.502Z,8.19
2023-03-02T05:42:36.610Z,8.48
2023-03-02T05:47:42.784Z,7.82
2023-03-02T05:52:48.982Z,8.30
2023-03-02T05:57:55.272Z,8.55
2023-03-02T06:03:01.473Z,8.32
2023-03-02T06:08:07.631Z,8.99
2023-03-02T06:13:13.817Z,8.65
2023-03-02T06:18:20.049Z,9.25
2023-03-02T06:23:26.998Z,9.65
2023-03-02T06:28:43.018Z,9.45
2023-03-02T06:33:38.983Z,9.63
2023-03-02T06:38:45.166Z,8.92
2023-03-02T06:43:51.392Z,9.33
2023-03-02T06:48:58.726Z,9.29
2023-03-02T06:54:04.959Z,9.19
2023-03-02T06:59:11.178Z,8.78
2023-03-02T07:04:17.416Z,8.90
2023-03-02T07:09:23.663Z,8.44
2023-03-02T07:14:29.748Z,8.89
2023-03-02T07:19:35.954Z,9.46
2023-03-02T07:24:44.054Z,8.79
2023-03-02T07:29:47.772Z,8.95
2023-03-02T07:34:54.007Z,8.83
2023-03-02T07:40:00.929Z,7.62
2023-03-02T07:45:05.831Z,8.46
2023-03-02T07:50:12.014Z,8.40
2023-03-02T07:55:18.213Z,8.17
2023-03-02T08:00:24.416Z,8.08
2023-03-02T08:05:30.507Z,7.51
2023-03-02T08:10:36.665Z,7.79
2023-03-02T08:15:42.785Z,7.25
2023-03-02T08:20:48.977Z,7.60
2023-03-02T08:25:55.070Z,7.19
2023-03-02T08:31:01.239Z,7.51
2023-03-02T08:36:07.409Z,7.68
2023-03-02T08:41:13.615Z,7.14
2023-03-02T08:46:19.845Z,9.48
2023-03-02T08:51:26.701Z,8.25
2023-03-02T08:56:33.251Z,7.72
2023-03-02T09:01:38.765Z,6.97
2023-03-02T09:06:44.732Z,7.22
2023-03-02T09:11:51.127Z,6.62
2023-03-02T09:16:57.300Z,7.43
2023-03-02T09:22:03.428Z,8.76
2023-03-02T09:27:09.504Z,10.39
2023-03-02T09:32:15.797Z,9.24
2023-03-02T09:37:21.782Z,8.77
2023-03-02T09:42:41.853Z,7.91
2023-03-02T09:47:35.416Z,9.04
2023-03-02T09:52:39.346Z,9.06
2023-03-02T09:57:45.437Z,8.86
2023-03-02T10:02:51.862Z,7.77
2023-03-02T10:07:59.437Z,7.23
2023-03-02T10:13:03.984Z,6.84
2023-03-02T10:18:10.061Z,8.37
2023-03-02T10:23:16.609Z,7.86
2023-03-02T10:28:22.749Z,7.05
2023-03-02T10:33:28.953Z,6.54
2023-03-02T10:38:35.035Z,6.26
2023-03-02T10:43:41.274Z,6.32
2023-03-02T10:48:49.420Z,6.34
2023-03-02T10:53:53.168Z,5.93
2023-03-02T10:58:59.265Z,6.15
2023-03-02T11:04:05.511Z,6.62
2023-03-02T11:09:11.619Z,6.29
2023-03-02T11:14:17.797Z,5.65
2023-03-02T11:19:23.872Z,5.67
2023-03-02T11:24:30.086Z,6.35
2023-03-02T11:29:36.155Z,6.04
2023-03-02T11:34:42.392Z,6.39
2023-03-02T11:39:54.934Z,6.10
2023-03-02T11:44:54.254Z,6.93
2023-03-02T11:50:00.338Z,7.10
2023-03-02T11:55:06.564Z,6.36
2023-03-02T12:00:12.763Z,6.20
2023-03-02T12:05:19.253Z,6.39
2023-03-02T12:10:25.294Z,6.02
2023-03-02T12:15:31.508Z,5.68
2023-03-02T12:20:37.615Z,5.40
2023-03-02T12:25:43.873Z,5.29
2023-03-02T12:30:49.977Z,5.02
2023-03-02T12:35:56.268Z,5.21
2023-03-02T12:41:02.411Z,5.00
2023-03-02T12:46:08.653Z,5.02
2023-03-02T12:51:14.707Z,4.97
2023-03-02T12:56:23.780Z,4.96
2023-03-02T13:01:29.976Z,4.98
2023-03-02T13:06:36.378Z,4.88
2023-03-02T13:11:44.177Z,4.93
2023-03-02T13:16:48.117Z,4.82
2023-03-02T13:21:54.184Z,5.34
2023-03-02T13:27:00.445Z,5.09
2023-03-02T13:32:06.650Z,5.33
2023-03-02T13:37:12.744Z,5.60
2023-03-02T13:42:18.847Z,5.01
2023-03-02T13:47:25.069Z,5.10
2023-03-02T13:52:31.149Z,5.41
2023-03-02T13:57:37.373Z,5.65
2023-03-02T14:02:43.762Z,5.54
2023-03-02T14:07:50.008Z,5.82
2023-03-02T14:12:56.148Z,6.27
2023-03-02T14:18:02.474Z,6.94
2023-03-02T14:23:08.563Z,6.96
2023-03-02T14:28:14.805Z,8.38
2023-03-02T14:33:21.005Z,8.49
2023-03-02T14:38:27.369Z,9.50
2023-03-02T14:43:33.453Z,9.49
2023-03-02T14:48:39.684Z,10.19
2023-03-02T14:53:45.804Z,11.13
2023-03-02T14:58:52.083Z,10.60
2023-03-02T15:03:58.268Z,10.82
2023-03-02T15:09:04.482Z,11.35
2023-03-02T15:14:10.642Z,11.44
2023-03-02T15:19:16.902Z,10.76
2023-03-02T15:24:23.391Z,10.36
2023-03-02T15:30:33.087Z,10.87
2023-03-02T15:35:39.320Z,9.84
2023-03-02T15:40:45.609Z,9.05
2023-03-02T15:45:51.804Z,7.96
2023-03-02T15:50:58.014Z,7.90
2023-03-02T15:56:04.211Z,7.00
2023-03-02T16:01:10.436Z,6.85
2023-03-02T16:06:16.590Z,7.51
2023-03-02T16:11:22.996Z,7.29
2023-03-02T16:16:29.113Z,10.62
2023-03-02T16:21:35.299Z,8.09
2023-03-02T16:26:41.595Z,6.99
2023-03-02T16:31:47.888Z,7.09
2023-03-02T16:36:54.000Z,6.66
2023-03-02T16:42:00.139Z,6.94
2023-03-02T16:47:06.196Z,6.96
2023-03-02T16:52:12.382Z,7.10
2023-03-02T16:57:18.519Z,7.31
2023-03-02T17:02:25.240Z,7.88
2023-03-02T17:07:31.316Z,7.41
2023-03-02T17:12:37.497Z,8.55
2023-03-02T17:17:43.673Z,8.27
2023-03-02T17:22:55.434Z,7.73
2023-03-02T17:27:51.578Z,7.19
2023-03-02T17:32:57.931Z,7.40
2023-03-02T17:38:05.006Z,7.74
2023-03-02T17:43:11.229Z,7.62
2023-03-02T17:48:17.326Z,8.08
2023-03-02T17:53:23.772Z,8.23
2023-03-02T17:58:42.820Z,8.29
2023-03-02T18:03:35.794Z,8.76
2023-03-02T18:08:41.947Z,9.30
2023-03-02T18:13:48.456Z,9.75
2023-03-02T18:18:54.605Z,9.10
2023-03-02T18:24:00.907Z,10.18
2023-03-02T18:29:06.976Z,9.63
2023-03-02T18:34:13.195Z,9.16
2023-03-02T18:39:19.360Z,10.04
2023-03-02T18:44:25.628Z,10.25
2023-03-02T18:49:31.852Z,10.58
2023-03-02T18:54:38.264Z,10.54
2023-03-02T18:59:44.357Z,9.96
2023-03-02T19:04:50.641Z,10.03
2023-03-02T19:09:56.706Z,9.54
2023-03-02T19:15:02.967Z,10.12
2023-03-02T19:20:09.065Z,10.13
2023-03-02T19:25:15.456Z,11.30
2023-03-02T19:30:21.511Z,13.62
2023-03-02T19:35:27.740Z,14.58
2023-03-02T19:40:33.935Z,15.65
2023-03-02T19:45:40.187Z,15.08
2023-03-02T19:50:46.316Z,15.15
2023-03-02T19:55:52.745Z,14.63
2023-03-02T20:00:58.969Z,14.11
2023-03-02T20:06:05.416Z,14.05
2023-03-02T20:11:11.521Z,13.90
2023-03-02T20:16:17.772Z,13.27
2023-03-02T20:21:24.423Z,10.20
2023-03-02T20:26:31.417Z,10.39
2023-03-02T20:31:37.598Z,10.20
2023-03-02T20:36:43.875Z,10.04
2023-03-02T20:41:50.987Z,9.82
2023-03-02T20:46:58.005Z,9.67
2023-03-02T20:52:04.047Z,9.32
2023-03-02T20:57:10.235Z,9.57
2023-03-02T21:02:16.402Z,9.69
2023-03-02T21:07:22.714Z,9.25
2023-03-02T21:12:29.016Z,9.52
2023-03-02T21:17:35.504Z,9.56
2023-03-02T21:22:41.599Z,9.10
2023-03-02T21:27:48.175Z,9.99
2023-03-02T21:32:54.354Z,9.95
2023-03-02T21:38:00.666Z,9.85
2023-03-02T21:43:06.966Z,9.63
2023-03-02T21:48:13.279Z,10.10
2023-03-02T21:53:19.388Z,10.27
2023-03-02T21:58:25.640Z,10.18
2023-03-02T22:03:32.039Z,10.95
2023-03-02T22:08:38.434Z,10.24
2023-03-02T22:13:44.572Z,11.14
2023-03-02T22:18:50.776Z,12.27
2023-03-02T22:23:56.984Z,12.61
2023-03-02T22:29:03.175Z,12.42
2023-03-02T22:34:09.257Z,11.92
2023-03-02T22:39:15.641Z,12.71
2023-03-02T22:44:21.715Z,13.89
2023-03-02T22:49:27.906Z,13.55
2023-03-02T22:54:34.048Z,13.41
2023-03-02T22:59:40.214Z,13.48
2023-03-02T23:04:46.370Z,14.14
2023-03-02T23:09:52.892Z,14.38
2023-03-02T23:14:59.071Z,14.50
2023-03-02T23:20:05.425Z,14.91
2023-03-02T23:25:11.525Z,14.59
2023-03-02T23:30:17.737Z,15.50
2023-03-02T23:35:23.865Z,15.51
2023-03-02T23:40:30.087Z,16.23
2023-03-02T23:45:36.357Z,16.77
2023-03-02T23:50:42.471Z,17.04
2023-03-02T23:55:48.601Z,17.71
